createdAt,value
2018-11-05T00:01:50.193Z,85.35
2018-11-05T00:04:19.232Z,88.52
2018-11-05T00:06:48.058Z,98.00
2018-11-05T00:09:17.087Z,89.67
2018-11-05T00:11:45.926Z,88.50
2018-11-05T00:14:14.973Z,90.15
2018-11-05T00:16:43.309Z,98.20
2018-11-05T00:19:12.124Z,93.87
2018-11-05T00:21:40.830Z,100.55
2018-11-05T00:24:10.231Z,96.42
2018-11-05T00:26:39.331Z,96.28
2018-11-05T00:29:08.535Z,103.27
2018-11-05T00:31:37.559Z,104.97
2018-11-05T00:34:06.605Z,107.25
2018-11-05T00:36:35.269Z,107.63
2018-11-05T00:39:04.770Z,118.10
2018-11-05T00:41:33.496Z,108.45
2018-11-05T00:44:02.162Z,114.17
2018-11-05T00:46:31.302Z,106.72
2018-11-05T00:49:00.377Z,112.97
2018-11-05T00:51:29.418Z,126.82
2018-11-05T00:53:58.284Z,122.37
2018-11-05T00:56:26.971Z,116.55
2018-11-05T00:58:55.664Z,125.02
2018-11-05T01:01:24.903Z,134.90
2018-11-05T01:03:54.082Z,138.55
2018-11-05T01:06:22.472Z,128.20
2018-11-05T01:08:52.049Z,124.18
2018-11-05T01:11:21.127Z,133.20
2018-11-05T01:13:50.154Z,130.63
2018-11-05T01:16:19.214Z,136.68
2018-11-05T01:18:47.902Z,124.22
2018-11-05T01:21:16.986Z,128.47
2018-11-05T01:23:46.021Z,133.40
2018-11-05T01:26:15.038Z,132.75
2018-11-05T01:28:45.101Z,125.05
2018-11-05T01:31:14.265Z,140.28
2018-11-05T01:33:42.982Z,135.70
2018-11-05T01:36:11.993Z,128.32
2018-11-05T01:38:40.661Z,134.93
2018-11-05T01:41:09.679Z,122.95
2018-11-05T01:43:38.411Z,134.60
2018-11-05T01:46:06.797Z,126.50
2018-11-05T01:48:35.494Z,133.70
2018-11-05T01:51:04.231Z,124.22
2018-11-05T01:53:32.903Z,125.40
2018-11-05T01:56:01.949Z,120.87
2018-11-05T01:58:31.412Z,135.78
2018-11-05T02:00:59.809Z,138.43
2018-11-05T02:03:28.825Z,137.22
2018-11-05T02:05:57.883Z,129.70
2018-11-05T02:08:26.575Z,121.62
2018-11-05T02:10:55.825Z,139.12
2018-11-05T02:13:24.606Z,125.62
2018-11-05T02:15:53.778Z,131.95
2018-11-05T02:18:23.081Z,127.00
2018-11-05T02:20:51.773Z,130.40
2018-11-05T02:23:20.520Z,129.50
2018-11-05T02:25:49.913Z,130.37
2018-11-05T02:28:18.905Z,134.50
2018-11-05T02:30:47.602Z,132.55
2018-11-05T02:33:16.297Z,136.50
2018-11-05T02:35:45.356Z,145.40
2018-11-05T02:38:14.377Z,130.18
2018-11-05T02:40:43.140Z,132.50
2018-11-05T02:43:12.259Z,139.72
2018-11-05T02:45:41.366Z,138.22
2018-11-05T02:48:10.112Z,133.70
2018-11-05T02:50:39.016Z,128.70
2018-11-05T02:53:08.049Z,130.93
2018-11-05T02:55:37.048Z,131.00
2018-11-05T02:58:05.962Z,141.10
2018-11-05T03:00:35.103Z,129.38
2018-11-05T03:03:03.981Z,140.88
2018-11-05T03:05:32.829Z,123.82
2018-11-05T03:08:02.068Z,134.93
2018-11-05T03:10:31.079Z,120.90
2018-11-05T03:12:59.777Z,129.82
2018-11-05T03:15:28.495Z,122.90
2018-11-05T03:17:57.821Z,136.77
2018-11-05T03:20:27.045Z,120.97
2018-11-05T03:22:55.729Z,127.22
2018-11-05T03:25:24.871Z,121.67
2018-11-05T03:27:53.557Z,119.85
2018-11-05T03:30:22.247Z,126.62
2018-11-05T03:32:51.049Z,123.20
2018-11-05T03:35:19.957Z,127.40
2018-11-05T03:37:48.677Z,136.70
2018-11-05T03:40:17.382Z,124.38
2018-11-05T03:42:46.097Z,125.53
2018-11-05T03:45:15.664Z,120.30
2018-11-05T03:47:44.600Z,122.10
2018-11-05T03:50:14.285Z,113.97
2018-11-05T03:52:43.980Z,124.27
2018-11-05T03:55:13.182Z,121.87
2018-11-05T03:57:41.874Z,117.62
2018-11-05T04:00:12.013Z,120.80
2018-11-05T04:02:40.757Z,124.75
2018-11-05T04:05:09.605Z,134.18
2018-11-05T04:07:38.933Z,122.78
2018-11-05T04:10:08.365Z,119.10
2018-11-05T04:12:37.097Z,115.77
2018-11-05T04:15:05.582Z,122.80
2018-11-05T04:17:34.277Z,119.70
2018-11-05T04:20:03.119Z,125.30
2018-11-05T04:22:32.142Z,115.82
2018-11-05T04:25:00.817Z,114.30
2018-11-05T04:27:29.875Z,110.97
2018-11-05T04:30:04.426Z,124.58
2018-11-05T04:32:33.787Z,111.75
2018-11-05T04:35:02.859Z,120.37
2018-11-05T04:37:31.992Z,111.83
2018-11-05T04:40:01.359Z,116.30
2018-11-05T04:42:30.072Z,118.30
2018-11-05T04:44:58.917Z,110.70
2018-11-05T04:47:27.869Z,107.35
2018-11-05T04:49:57.090Z,116.45
2018-11-05T04:52:26.230Z,110.42
2018-11-05T04:54:55.279Z,114.72
2018-11-05T04:57:24.333Z,115.42
2018-11-05T04:59:53.842Z,110.08
2018-11-05T05:02:22.239Z,114.80
2018-11-05T05:04:51.454Z,104.65
2018-11-05T05:07:20.681Z,104.10
2018-11-05T05:09:49.938Z,100.05
2018-11-05T05:12:18.952Z,167.65
2018-11-05T05:14:48.001Z,109.52
2018-11-05T05:17:16.732Z,109.83
2018-11-05T05:19:45.784Z,111.05
2018-11-05T05:22:14.896Z,108.10
2018-11-05T05:24:44.081Z,115.12
2018-11-05T05:27:13.125Z,106.87
2018-11-05T05:29:42.166Z,116.67
2018-11-05T05:32:11.226Z,119.77
2018-11-05T05:34:40.323Z,109.10
2018-11-05T05:37:09.367Z,106.70
2018-11-05T05:39:38.446Z,101.30
2018-11-05T05:42:07.106Z,108.25
2018-11-05T05:44:36.171Z,109.37
2018-11-05T05:47:04.814Z,110.10
2018-11-05T05:49:33.272Z,111.52
2018-11-05T05:52:01.994Z,112.50
2018-11-05T05:54:31.282Z,110.78
2018-11-05T05:56:59.685Z,102.62
2018-11-05T05:59:28.740Z,105.55
2018-11-05T06:01:57.437Z,99.28
2018-11-05T06:04:26.165Z,107.75
2018-11-05T06:06:55.188Z,98.03
2018-11-05T06:09:23.898Z,110.40
2018-11-05T06:11:52.991Z,104.40
2018-11-05T06:14:21.702Z,103.80
2018-11-05T06:16:50.757Z,95.22
2018-11-05T06:19:19.784Z,101.45
2018-11-05T06:21:48.838Z,110.25
2018-11-05T06:24:18.039Z,97.25
2018-11-05T06:26:46.765Z,107.97
2018-11-05T06:29:15.227Z,101.38
2018-11-05T06:31:44.295Z,105.47
2018-11-05T06:34:13.361Z,101.53
2018-11-05T06:36:42.441Z,100.75
2018-11-05T06:39:12.444Z,102.30
2018-11-05T06:41:42.394Z,100.27
2018-11-05T06:44:11.640Z,90.32
2018-11-05T06:46:40.762Z,94.92
2018-11-05T06:49:09.730Z,101.40
2018-11-05T06:51:38.754Z,96.65
2018-11-05T06:54:07.839Z,103.12
2018-11-05T06:56:37.020Z,99.87
2018-11-05T06:59:06.418Z,88.75
2018-11-05T07:01:34.781Z,97.50
2018-11-05T07:04:03.483Z,96.82
2018-11-05T07:06:32.566Z,103.62
2018-11-05T07:09:01.614Z,97.40
2018-11-05T07:11:30.796Z,91.70
2018-11-05T07:13:59.210Z,90.72
2018-11-05T07:16:28.337Z,89.62
2018-11-05T07:18:57.668Z,90.00
2018-11-05T07:21:26.305Z,90.22
2018-11-05T07:23:54.994Z,92.70
2018-11-05T07:26:23.785Z,89.30
2018-11-05T07:28:53.023Z,88.65
2018-11-05T07:31:22.059Z,92.47
2018-11-05T07:33:50.867Z,94.22
2018-11-05T07:36:19.741Z,90.65
2018-11-05T07:38:48.813Z,90.85
2018-11-05T07:41:17.880Z,86.50
2018-11-05T07:43:46.643Z,94.42
2018-11-05T07:46:15.429Z,94.52
2018-11-05T07:48:44.145Z,92.75
2018-11-05T07:51:12.568Z,88.60
2018-11-05T07:53:41.269Z,85.80
2018-11-05T07:56:10.338Z,93.87
2018-11-05T07:58:39.501Z,98.80
2018-11-05T08:01:08.219Z,85.17
2018-11-05T08:03:36.962Z,87.78
2018-11-05T08:06:05.435Z,82.37
2018-11-05T08:08:34.287Z,82.22
2018-11-05T08:11:03.087Z,81.22
2018-11-05T08:13:32.174Z,84.90
2018-11-05T08:16:01.458Z,81.53
2018-11-05T08:18:30.509Z,78.33
2018-11-05T08:20:59.256Z,85.47
2018-11-05T08:23:28.018Z,84.37
2018-11-05T08:25:57.132Z,80.83
2018-11-05T08:28:26.394Z,87.97
2018-11-05T08:30:55.421Z,83.62
2018-11-05T08:33:24.460Z,86.32
2018-11-05T08:35:53.553Z,85.85
2018-11-05T08:38:22.300Z,85.00
2018-11-05T08:40:51.306Z,78.10
2018-11-05T08:43:19.786Z,77.78
2018-11-05T08:45:48.914Z,80.55
2018-11-05T08:48:17.966Z,75.55
2018-11-05T08:50:46.780Z,83.15
2018-11-05T08:53:15.974Z,73.83
2018-11-05T08:55:45.058Z,77.10
2018-11-05T08:58:14.146Z,79.27
2018-11-05T09:00:56.032Z,93.05
2018-11-05T09:03:25.217Z,77.20
2018-11-05T09:05:54.303Z,71.72
2018-11-05T09:08:23.064Z,75.25
2018-11-05T09:10:52.414Z,87.97
2018-11-05T09:13:20.921Z,78.72
2018-11-05T09:15:50.000Z,72.25
2018-11-05T09:18:19.108Z,75.40
2018-11-05T09:20:47.841Z,75.15
2018-11-05T09:23:17.102Z,77.92
2018-11-05T09:25:46.181Z,68.42
2018-11-05T09:28:14.972Z,72.65
2018-11-05T09:30:44.042Z,73.92
2018-11-05T09:33:13.103Z,75.72
2018-11-05T09:35:42.259Z,73.22
2018-11-05T09:38:11.081Z,71.15
2018-11-05T09:40:39.825Z,85.75
2018-11-05T09:43:08.218Z,68.87
2018-11-05T09:45:37.285Z,77.72
2018-11-05T09:48:05.998Z,67.05
2018-11-05T09:50:34.806Z,75.17
2018-11-05T09:53:03.985Z,67.65
2018-11-05T09:55:33.078Z,75.17
2018-11-05T09:58:01.666Z,69.47
2018-11-05T10:00:30.426Z,71.97
2018-11-05T10:03:01.854Z,72.27
2018-11-05T10:05:31.154Z,70.80
2018-11-05T10:07:59.708Z,61.00
2018-11-05T10:10:28.904Z,67.32
2018-11-05T10:12:57.864Z,65.03
2018-11-05T10:15:26.373Z,68.30
2018-11-05T10:17:54.934Z,67.32
2018-11-05T10:20:24.762Z,65.15
2018-11-05T10:22:53.478Z,62.05
2018-11-05T10:25:21.929Z,64.00
2018-11-05T10:27:51.510Z,58.20
2018-11-05T10:30:28.370Z,61.67
2018-11-05T10:32:57.078Z,66.03
2018-11-05T10:35:30.809Z,63.17
2018-11-05T10:37:58.911Z,61.10
2018-11-05T10:40:27.423Z,64.77
2018-11-05T10:42:55.973Z,58.90
2018-11-05T10:45:24.711Z,61.77
2018-11-05T10:47:53.453Z,59.97
2018-11-05T10:50:22.251Z,57.47
2018-11-05T10:52:51.793Z,63.83
2018-11-05T10:55:20.301Z,63.63
2018-11-05T10:57:48.963Z,59.97
2018-11-05T11:00:24.855Z,61.17
2018-11-05T11:02:59.011Z,58.47
2018-11-05T11:05:27.949Z,56.60
2018-11-05T11:07:57.368Z,57.83
2018-11-05T11:10:26.793Z,59.50
2018-11-05T11:12:55.913Z,54.60
2018-11-05T11:15:24.551Z,56.17
2018-11-05T11:17:53.841Z,54.70
2018-11-05T11:20:22.380Z,60.83
2018-11-05T11:22:50.813Z,55.70
2018-11-05T11:25:19.737Z,57.73
2018-11-05T11:27:48.564Z,56.87
2018-11-05T11:30:18.169Z,52.70
2018-11-05T11:32:47.573Z,55.90
2018-11-05T11:35:16.465Z,55.87
2018-11-05T11:37:45.212Z,58.50
2018-11-05T11:40:16.991Z,56.63
2018-11-05T11:42:47.881Z,54.47
2018-11-05T11:45:17.691Z,53.43
2018-11-05T11:47:45.807Z,52.17
2018-11-05T11:50:15.852Z,54.93
2018-11-05T11:52:44.378Z,53.83
2018-11-05T11:55:14.799Z,57.80
2018-11-05T11:57:44.112Z,50.50
2018-11-05T12:00:15.757Z,49.40
2018-11-05T12:02:44.793Z,49.03
2018-11-05T12:05:13.471Z,51.50
2018-11-05T12:07:42.133Z,58.37
2018-11-05T12:10:13.511Z,52.77
2018-11-05T12:12:42.461Z,49.70
2018-11-05T12:15:11.553Z,49.60
2018-11-05T12:17:40.874Z,48.40
2018-11-05T12:20:12.065Z,56.30
2018-11-05T12:22:40.458Z,56.77
2018-11-05T12:25:08.943Z,49.07
2018-11-05T12:27:37.889Z,52.07
2018-11-05T12:30:09.051Z,50.13
2018-11-05T12:32:37.228Z,47.93
2018-11-05T12:35:06.612Z,51.47
2018-11-05T12:37:35.261Z,51.60
2018-11-05T12:40:03.357Z,47.87
2018-11-05T12:42:31.796Z,44.17
2018-11-05T12:45:00.580Z,49.10
2018-11-05T12:47:29.182Z,48.37
2018-11-05T12:49:57.699Z,50.07
2018-11-05T12:52:26.201Z,47.10
2018-11-05T12:54:54.841Z,50.20
2018-11-05T12:57:23.601Z,52.33
2018-11-05T12:59:52.709Z,53.57
2018-11-05T13:02:24.353Z,56.47
2018-11-05T13:04:53.228Z,53.63
2018-11-05T13:07:21.817Z,50.90
2018-11-05T13:09:50.942Z,53.93
2018-11-05T13:12:19.818Z,50.70
2018-11-05T13:14:48.357Z,54.80
2018-11-05T13:17:17.142Z,57.97
2018-11-05T13:19:45.565Z,52.90
2018-11-05T13:22:14.399Z,50.70
2018-11-05T13:24:42.949Z,52.67
2018-11-05T13:27:11.698Z,53.60
2018-11-05T13:29:40.246Z,58.93
2018-11-05T13:32:08.524Z,55.63
2018-11-05T13:34:37.269Z,54.17
2018-11-05T13:37:05.988Z,52.93
2018-11-05T13:39:35.038Z,52.57
2018-11-05T13:42:03.449Z,52.43
2018-11-05T13:44:32.306Z,52.97
2018-11-05T13:47:01.810Z,62.03
2018-11-05T13:49:29.615Z,61.67
2018-11-05T13:51:58.840Z,47.87
2018-11-05T13:54:27.206Z,50.40
2018-11-05T13:56:55.806Z,56.70
2018-11-05T13:59:24.300Z,57.27
2018-11-05T14:01:53.114Z,52.23
2018-11-05T14:04:21.917Z,53.00
2018-11-05T14:06:50.800Z,54.57
2018-11-05T14:09:19.554Z,52.70
2018-11-05T14:11:48.093Z,49.80
2018-11-05T14:14:16.544Z,50.33
2018-11-05T14:16:44.954Z,54.07
2018-11-05T14:19:13.417Z,49.83
2018-11-05T14:21:42.209Z,51.03
2018-11-05T14:24:11.049Z,49.23
2018-11-05T14:26:39.783Z,54.77
2018-11-05T14:29:08.903Z,56.17
2018-11-05T14:31:37.179Z,58.23
2018-11-05T14:34:05.512Z,58.40
2018-11-05T14:36:34.352Z,58.63
2018-11-05T14:39:03.357Z,59.03
2018-11-05T14:41:32.114Z,59.40
2018-11-05T14:44:00.627Z,54.17
2018-11-05T14:46:29.399Z,51.90
2018-11-05T14:48:58.145Z,55.77
2018-11-05T14:51:27.129Z,60.83
2018-11-05T14:53:55.862Z,61.23
2018-11-05T14:56:24.323Z,61.67
2018-11-05T14:58:53.070Z,57.00
2018-11-05T15:01:21.479Z,67.07
2018-11-05T15:03:49.821Z,64.03
2018-11-05T15:06:18.703Z,63.33
2018-11-05T15:08:47.205Z,61.03
2018-11-05T15:11:15.965Z,78.97
2018-11-05T15:13:45.406Z,57.17
2018-11-05T15:16:14.248Z,61.20
2018-11-05T15:18:43.030Z,60.50
2018-11-05T15:21:11.879Z,58.23
2018-11-05T15:23:40.549Z,59.13
2018-11-05T15:26:09.391Z,60.40
2018-11-05T15:28:37.945Z,56.80
2018-11-05T15:31:07.223Z,52.45
2018-11-05T15:33:35.718Z,51.30
2018-11-05T15:36:04.077Z,52.57
2018-11-05T15:38:32.697Z,56.87
2018-11-05T15:41:01.919Z,50.45
2018-11-05T15:43:30.647Z,45.78
2018-11-05T15:45:59.137Z,52.40
2018-11-05T15:48:27.820Z,50.10
2018-11-05T15:50:56.922Z,44.80
2018-11-05T15:53:26.645Z,51.98
2018-11-05T15:55:55.548Z,53.28
2018-11-05T15:58:25.021Z,45.40
2018-11-05T16:00:54.325Z,47.13
2018-11-05T16:03:23.363Z,44.75
2018-11-05T16:05:52.404Z,51.05
2018-11-05T16:08:20.751Z,43.98
2018-11-05T16:10:49.702Z,48.08
2018-11-05T16:13:18.475Z,49.60
2018-11-05T16:15:47.129Z,46.58
2018-11-05T16:18:16.140Z,45.55
2018-11-05T16:20:44.853Z,47.83
2018-11-05T16:23:14.274Z,46.20
2018-11-05T16:25:42.919Z,52.03
2018-11-05T16:28:11.966Z,45.05
2018-11-05T16:30:40.729Z,49.73
2018-11-05T16:33:09.990Z,51.90
2018-11-05T16:35:39.110Z,53.87
2018-11-05T16:38:08.270Z,50.70
2018-11-05T16:40:36.965Z,57.65
2018-11-05T16:43:05.676Z,50.55
2018-11-05T16:45:34.759Z,51.28
2018-11-05T16:48:03.641Z,58.48
2018-11-05T16:50:32.333Z,53.10
2018-11-05T16:53:01.328Z,54.03
2018-11-05T16:55:30.040Z,194.15
2018-11-05T16:57:58.843Z,79.32
2018-11-05T17:00:27.808Z,62.67
2018-11-05T17:02:57.071Z,55.52
2018-11-05T17:05:26.293Z,52.38
2018-11-05T17:07:55.010Z,55.45
2018-11-05T17:10:24.045Z,52.15
2018-11-05T17:12:53.107Z,53.00
2018-11-05T17:15:22.178Z,61.33
2018-11-05T17:17:50.555Z,56.85
2018-11-05T17:20:20.103Z,52.80
2018-11-05T17:22:48.838Z,55.17
2018-11-05T17:25:17.891Z,57.67
2018-11-05T17:27:47.804Z,58.75
2018-11-05T17:30:18.726Z,55.40
2018-11-05T17:32:48.134Z,56.92
2018-11-05T17:35:17.143Z,69.70
2018-11-05T17:37:46.456Z,61.10
2018-11-05T17:40:17.091Z,58.73
2018-11-05T17:42:45.869Z,58.55
2018-11-05T17:45:16.526Z,60.95
2018-11-05T17:47:45.437Z,62.23
2018-11-05T17:50:16.455Z,60.45
2018-11-05T17:52:45.153Z,56.77
2018-11-05T17:55:14.318Z,58.33
2018-11-05T17:57:44.074Z,60.00
2018-11-05T18:00:19.481Z,60.55
2018-11-05T18:02:48.521Z,53.70
2018-11-05T18:05:17.217Z,62.70
2018-11-05T18:07:46.460Z,58.25
2018-11-05T18:10:15.739Z,58.00
2018-11-05T18:12:44.813Z,56.58
2018-11-05T18:15:14.181Z,60.88
2018-11-05T18:17:43.960Z,57.25
2018-11-05T18:20:13.798Z,163.25
2018-11-05T18:22:42.903Z,59.80
2018-11-05T18:25:13.085Z,65.25
2018-11-05T18:27:42.129Z,56.53
2018-11-05T18:30:11.296Z,56.55
2018-11-05T18:32:40.116Z,59.25
2018-11-05T18:35:10.411Z,58.75
2018-11-05T18:37:39.673Z,56.55
2018-11-05T18:40:10.226Z,61.20
2018-11-05T18:42:39.654Z,61.70
2018-11-05T18:45:08.546Z,58.75
2018-11-05T18:47:37.147Z,56.95
2018-11-05T18:50:07.726Z,69.32
2018-11-05T18:52:36.626Z,64.70
2018-11-05T18:55:06.778Z,56.35
2018-11-05T18:57:35.281Z,60.73
2018-11-05T19:00:04.173Z,59.90
2018-11-05T19:02:34.062Z,59.33
2018-11-05T19:05:03.233Z,58.42
2018-11-05T19:07:32.653Z,53.68
2018-11-05T19:10:01.772Z,60.83
2018-11-05T19:12:30.847Z,61.35
2018-11-05T19:14:59.304Z,59.30
2018-11-05T19:17:28.526Z,64.25
2018-11-05T19:19:57.452Z,56.68
2018-11-05T19:22:26.504Z,61.35
2018-11-05T19:24:55.779Z,59.10
2018-11-05T19:27:24.837Z,58.50
2018-11-05T19:29:55.272Z,64.45
2018-11-05T19:32:24.768Z,58.78
2018-11-05T19:34:53.818Z,64.70
2018-11-05T19:37:22.944Z,57.73
2018-11-05T19:39:52.010Z,56.13
2018-11-05T19:42:21.917Z,59.10
2018-11-05T19:44:50.386Z,58.87
2018-11-05T19:47:20.923Z,54.93
2018-11-05T19:49:52.934Z,59.13
2018-11-05T19:52:21.621Z,56.35
2018-11-05T19:54:50.261Z,53.13
2018-11-05T19:57:19.264Z,58.30
2018-11-05T19:59:48.129Z,56.77
2018-11-05T20:02:17.594Z,61.37
2018-11-05T20:04:46.786Z,61.18
2018-11-05T20:07:15.543Z,51.15
2018-11-05T20:09:44.259Z,64.20
2018-11-05T20:12:13.630Z,60.08
2018-11-05T20:14:42.370Z,54.50
2018-11-05T20:17:11.538Z,85.32
2018-11-05T20:19:40.265Z,107.55
2018-11-05T20:22:09.062Z,61.35
2018-11-05T20:24:38.331Z,50.98
2018-11-05T20:27:07.043Z,51.95
2018-11-05T20:29:36.079Z,58.80
2018-11-05T20:32:05.501Z,51.70
2018-11-05T20:34:34.794Z,60.43
2018-11-05T20:37:03.525Z,59.08
2018-11-05T20:39:31.951Z,49.13
2018-11-05T20:42:00.641Z,60.03
2018-11-05T20:44:29.059Z,57.13
2018-11-05T20:46:58.174Z,49.33
2018-11-05T20:49:26.926Z,46.53
2018-11-05T20:51:56.004Z,48.05
2018-11-05T20:54:25.050Z,48.55
2018-11-05T20:56:53.788Z,48.90
2018-11-05T20:59:22.643Z,43.83
2018-11-05T21:01:51.715Z,46.88
2018-11-05T21:04:20.815Z,44.98
2018-11-05T21:06:49.890Z,50.48
2018-11-05T21:09:18.960Z,41.95
2018-11-05T21:11:48.253Z,44.45
2018-11-05T21:14:17.279Z,45.67
2018-11-05T21:16:45.653Z,54.45
2018-11-05T21:19:14.820Z,45.45
2018-11-05T21:21:44.067Z,60.63
2018-11-05T21:24:13.090Z,61.05
2018-11-05T21:26:42.524Z,44.50
2018-11-05T21:29:11.821Z,48.00
2018-11-05T21:31:40.851Z,47.20
2018-11-05T21:34:09.934Z,53.35
2018-11-05T21:36:38.946Z,46.53
2018-11-05T21:39:09.577Z,44.53
2018-11-05T21:41:37.952Z,48.45
2018-11-05T21:44:07.622Z,44.18
2018-11-05T21:46:36.421Z,42.85
2018-11-05T21:49:05.333Z,43.05
2018-11-05T21:51:34.398Z,37.58
2018-11-05T21:54:03.100Z,45.30
2018-11-05T21:56:31.873Z,40.63
2018-11-05T21:59:00.637Z,38.78
2018-11-05T22:01:29.697Z,36.63
2018-11-05T22:03:58.765Z,38.25
2018-11-05T22:06:27.796Z,40.20
2018-11-05T22:08:56.882Z,38.95
2018-11-05T22:11:25.622Z,39.73
2018-11-05T22:13:54.265Z,42.13
2018-11-05T22:16:23.317Z,39.00
2018-11-05T22:18:52.337Z,38.88
2018-11-05T22:21:20.779Z,40.88
2018-11-05T22:23:49.459Z,34.33
2018-11-05T22:26:18.480Z,39.80
2018-11-05T22:28:47.489Z,32.17
2018-11-05T22:31:21.828Z,32.30
2018-11-05T22:33:50.902Z,33.33
2018-11-05T22:36:19.923Z,34.08
2018-11-05T22:38:48.913Z,30.80
2018-11-05T22:41:18.025Z,29.12
2018-11-05T22:43:46.878Z,32.30
2018-11-05T22:46:15.891Z,32.60
2018-11-05T22:48:44.970Z,30.32
2018-11-05T22:51:13.977Z,31.23
2018-11-05T22:53:43.066Z,30.02
2018-11-05T22:56:11.742Z,26.48
2018-11-05T22:58:40.426Z,27.40
2018-11-05T23:01:09.681Z,32.40
2018-11-05T23:03:38.076Z,30.30
2018-11-05T23:06:07.911Z,26.90
2018-11-05T23:08:36.969Z,27.93
2018-11-05T23:11:05.563Z,28.57
2018-11-05T23:13:34.218Z,27.30
2018-11-05T23:16:03.262Z,26.97
2018-11-05T23:18:32.269Z,27.25
2018-11-05T23:21:00.941Z,28.30
2018-11-05T23:23:29.624Z,29.65
2018-11-05T23:25:58.643Z,28.10
2018-11-05T23:28:27.678Z,27.70
2018-11-05T23:30:56.037Z,27.62
2018-11-05T23:33:24.721Z,26.25
2018-11-05T23:35:53.928Z,24.18
2018-11-05T23:38:22.605Z,29.15
2018-11-05T23:40:51.763Z,28.67
2018-11-05T23:43:20.843Z,28.12
2018-11-05T23:45:49.865Z,29.50
2018-11-05T23:48:18.862Z,37.15
2018-11-05T23:50:47.533Z,28.83
2018-11-05T23:53:16.559Z,28.02
2018-11-05T23:55:45.595Z,27.02
2018-11-05T23:58:14.646Z,28.60
